Terminal Aerodrome Forecast
Issued by NWS Jackson, KY

Home | Current Version | Previous Version | Text Only | Print | Product List | Glossary On
Versions: 1 2 3 4 5 6 7 8 9 10 11 12 13 14 15
000
FTUS43 KJKL 231100 RRA
TAFJKL
TAF
KJKL 231146Z 2312/2412 VRB03KT P6SM SCT040 OVC090
     FM231400 VRB03KT P6SM -RA OVC040
     FM231600 01003KT 3SM -RA BR OVC025
     FM231900 01003KT 2SM -RA BR BKN008 OVC012
     FM240100 34003KT 1SM -RA BR BKN005 OVC010
     FM240600 32003KT 1SM -SN BR BKN005 OVC010=

USA.gov is the U.S. government's official web portal to all federal, state and local government web resources and services.